createdAt,value
2024-02-02T00:01:12.179Z,101097.66
2024-02-02T00:03:47.600Z,101092.85
2024-02-02T00:06:15.636Z,101103.52
2024-02-02T00:08:43.534Z,101095.06
2024-02-02T00:11:11.479Z,101092.91
2024-02-02T00:13:39.427Z,101093.23
2024-02-02T00:16:07.729Z,101092.19
2024-02-02T00:18:35.767Z,101100.44
2024-02-02T00:21:04.351Z,101107.40
2024-02-02T00:23:32.352Z,101112.79
2024-02-02T00:26:00.275Z,101111.54
2024-02-02T00:28:28.288Z,101109.07
2024-02-02T00:30:56.139Z,101103.83
2024-02-02T00:33:24.227Z,101105.75
2024-02-02T00:35:52.131Z,101109.17
2024-02-02T00:38:19.956Z,101107.55
2024-02-02T00:40:49.188Z,101108.67
2024-02-02T00:43:17.340Z,101104.15
2024-02-02T00:45:45.245Z,101103.35
2024-02-02T00:48:13.313Z,101100.95
2024-02-02T00:50:41.182Z,101096.98
2024-02-02T00:53:09.121Z,101088.64
2024-02-02T00:55:37.028Z,101082.61
2024-02-02T00:58:05.521Z,101085.73
2024-02-02T01:00:33.547Z,101093.14
2024-02-02T01:03:01.784Z,101097.09
2024-02-02T01:05:32.254Z,101091.89
2024-02-02T01:08:00.188Z,101087.45
2024-02-02T01:10:29.315Z,101088.88
2024-02-02T01:12:57.275Z,101101.95
2024-02-02T01:15:25.768Z,101099.26
2024-02-02T01:17:53.981Z,101091.60
2024-02-02T01:20:22.011Z,101089.57
2024-02-02T01:22:50.121Z,101087.02
2024-02-02T01:25:18.130Z,101087.59
2024-02-02T01:27:46.078Z,101083.24
2024-02-02T01:30:14.267Z,101085.21
2024-02-02T01:32:42.190Z,101089.32
2024-02-02T01:35:10.124Z,101086.98
2024-02-02T01:37:38.246Z,101088.30
2024-02-02T01:40:06.817Z,101082.58
2024-02-02T01:42:34.825Z,101091.29
2024-02-02T01:45:02.982Z,101086.65
2024-02-02T01:47:31.604Z,101093.34
2024-02-02T01:49:59.712Z,101092.43
2024-02-02T01:52:28.118Z,101093.84
2024-02-02T01:54:57.033Z,101099.20
2024-02-02T01:57:25.055Z,101104.99
2024-02-02T01:59:53.152Z,101101.80
2024-02-02T02:02:21.342Z,101109.34
2024-02-02T02:04:49.236Z,101114.92
2024-02-02T02:07:17.733Z,101115.89
2024-02-02T02:09:46.690Z,101117.81
2024-02-02T02:12:14.684Z,101116.79
2024-02-02T02:14:43.409Z,101112.46
2024-02-02T02:17:11.354Z,101113.02
2024-02-02T02:19:40.712Z,101114.80
2024-02-02T02:22:08.796Z,101123.52
2024-02-02T02:24:37.726Z,101119.61
2024-02-02T02:27:05.743Z,101123.81
2024-02-02T02:29:33.707Z,101120.42
2024-02-02T02:32:01.655Z,101125.06
2024-02-02T02:34:30.147Z,101122.92
2024-02-02T02:36:58.638Z,101123.23
2024-02-02T02:39:26.524Z,101127.15
2024-02-02T02:41:54.447Z,101125.02
2024-02-02T02:44:22.438Z,101121.36
2024-02-02T02:46:52.797Z,101122.98
2024-02-02T02:49:21.086Z,101128.45
2024-02-02T02:51:49.194Z,101135.57
2024-02-02T02:54:17.079Z,101136.45
2024-02-02T02:56:45.079Z,101146.22
2024-02-02T02:59:12.974Z,101144.36
2024-02-02T03:01:40.921Z,101138.61
2024-02-02T03:04:09.388Z,101142.94
2024-02-02T03:06:37.371Z,101143.54
2024-02-02T03:09:06.084Z,101138.45
2024-02-02T03:11:34.150Z,101136.95
2024-02-02T03:14:02.211Z,101138.52
2024-02-02T03:16:30.167Z,101140.05
2024-02-02T03:18:58.179Z,101142.59
2024-02-02T03:21:26.173Z,101143.69
2024-02-02T03:23:54.806Z,101149.56
2024-02-02T03:26:22.830Z,101155.00
2024-02-02T03:28:50.711Z,101154.48
2024-02-02T03:31:18.553Z,101162.63
2024-02-02T03:33:46.633Z,101165.88
2024-02-02T03:36:14.655Z,101167.60
2024-02-02T03:38:42.618Z,101164.55
2024-02-02T03:41:10.540Z,101165.52
2024-02-02T03:43:38.432Z,101168.46
2024-02-02T03:46:06.311Z,101167.36
2024-02-02T03:48:34.321Z,101166.45
2024-02-02T03:51:02.254Z,101168.62
2024-02-02T03:53:30.387Z,101167.39
2024-02-02T03:55:59.389Z,101171.38
2024-02-02T03:58:27.624Z,101173.08
2024-02-02T04:00:56.959Z,101174.16
2024-02-02T04:03:25.116Z,101179.52
2024-02-02T04:05:53.447Z,101181.98
2024-02-02T04:08:21.398Z,101183.83
2024-02-02T04:10:49.374Z,101182.27
2024-02-02T04:13:17.298Z,101181.40
2024-02-02T04:15:45.482Z,101183.48
2024-02-02T04:18:14.029Z,101179.67
2024-02-02T04:20:41.976Z,101181.95
2024-02-02T04:23:09.977Z,101186.55
2024-02-02T04:25:38.171Z,101185.96
2024-02-02T04:28:09.354Z,101185.33
2024-02-02T04:30:37.436Z,101185.47
2024-02-02T04:33:06.109Z,101181.67
2024-02-02T04:35:36.158Z,101184.79
2024-02-02T04:38:05.630Z,101183.92
2024-02-02T04:40:33.938Z,101186.67
2024-02-02T04:43:01.846Z,101193.52
2024-02-02T04:45:30.165Z,101195.53
2024-02-02T04:47:58.334Z,101200.55
2024-02-02T04:50:26.984Z,101206.86
2024-02-02T04:52:54.869Z,101205.95
2024-02-02T04:55:22.873Z,101210.16
2024-02-02T04:57:50.966Z,101211.86
2024-02-02T05:00:19.270Z,101210.63
2024-02-02T05:02:48.580Z,101210.64
2024-02-02T05:05:16.524Z,101211.74
2024-02-02T05:07:44.596Z,101214.20
2024-02-02T05:10:13.055Z,101214.36
2024-02-02T05:12:41.004Z,101210.27
2024-02-02T05:15:09.697Z,101211.61
2024-02-02T05:17:37.863Z,101205.61
2024-02-02T05:20:06.918Z,101197.30
2024-02-02T05:22:34.817Z,101197.91
2024-02-02T05:25:03.050Z,101202.58
2024-02-02T05:27:31.123Z,101201.02
2024-02-02T05:29:59.210Z,101202.39
2024-02-02T05:32:27.261Z,101202.04
2024-02-02T05:34:55.118Z,101199.88
2024-02-02T05:37:23.315Z,101197.66
2024-02-02T05:39:51.193Z,101197.40
2024-02-02T05:42:20.223Z,101195.80
2024-02-02T05:44:48.224Z,101198.21
2024-02-02T05:47:16.186Z,101195.38
2024-02-02T05:49:44.069Z,101188.16
2024-02-02T05:52:12.206Z,101186.05
2024-02-02T05:54:40.212Z,101183.46
2024-02-02T05:57:08.198Z,101188.65
2024-02-02T05:59:36.697Z,101187.67
2024-02-02T06:02:04.587Z,101188.27
2024-02-02T06:04:32.529Z,101192.84
2024-02-02T06:07:00.512Z,101195.36
2024-02-02T06:09:28.672Z,101192.77
2024-02-02T06:11:56.839Z,101195.02
2024-02-02T06:14:26.965Z,101198.61
2024-02-02T06:16:54.932Z,101201.48
2024-02-02T06:19:22.932Z,101203.23
2024-02-02T06:21:50.988Z,101203.54
2024-02-02T06:24:18.929Z,101209.73
2024-02-02T06:26:47.027Z,101211.31
2024-02-02T06:29:14.972Z,101216.41
2024-02-02T06:31:42.848Z,101219.91
2024-02-02T06:34:10.884Z,101222.61
2024-02-02T06:36:38.826Z,101222.05
2024-02-02T06:39:06.930Z,101229.05
2024-02-02T06:41:34.890Z,101227.83
2024-02-02T06:44:02.786Z,101235.07
2024-02-02T06:46:30.740Z,101234.52
2024-02-02T06:48:58.751Z,101237.73
2024-02-02T06:51:26.820Z,101236.73
2024-02-02T06:53:54.791Z,101234.33
2024-02-02T06:56:44.070Z,101230.38
2024-02-02T06:59:12.611Z,101226.66
2024-02-02T07:01:40.598Z,101224.23
2024-02-02T07:04:12.706Z,101219.93
2024-02-02T07:06:40.821Z,101221.37
2024-02-02T07:09:21.424Z,101221.54
2024-02-02T07:12:00.029Z,101223.17
2024-02-02T07:14:34.270Z,101230.54
2024-02-02T07:17:02.297Z,101226.90
2024-02-02T07:19:41.927Z,101234.28
2024-02-02T07:22:29.349Z,101237.88
2024-02-02T07:24:57.349Z,101239.51
2024-02-02T07:27:52.728Z,101233.56
2024-02-02T07:30:45.707Z,101229.35
2024-02-02T07:33:28.734Z,101225.08
2024-02-02T07:36:00.538Z,101223.88
2024-02-02T07:38:43.597Z,101227.19
2024-02-02T07:41:15.857Z,101225.98
2024-02-02T07:43:44.347Z,101228.98
2024-02-02T07:46:15.481Z,101231.50
2024-02-02T07:48:45.503Z,101229.13
2024-02-02T07:51:14.319Z,101229.16
2024-02-02T07:53:45.554Z,101229.27
2024-02-02T07:56:14.153Z,101229.02
2024-02-02T07:58:42.135Z,101232.84
2024-02-02T08:01:10.590Z,101233.77
2024-02-02T08:03:39.166Z,101236.08
2024-02-02T08:06:08.123Z,101236.85
2024-02-02T08:08:37.533Z,101243.45
2024-02-02T08:11:05.751Z,101239.68
2024-02-02T08:13:34.169Z,101245.27
2024-02-02T08:16:02.236Z,101244.46
2024-02-02T08:18:30.510Z,101238.48
2024-02-02T08:20:58.860Z,101238.39
2024-02-02T08:23:27.106Z,101237.05
2024-02-02T08:25:55.207Z,101236.89
2024-02-02T08:28:23.268Z,101239.93
2024-02-02T08:30:51.236Z,101237.57
2024-02-02T08:33:19.348Z,101239.53
2024-02-02T08:35:47.361Z,101233.95
2024-02-02T08:38:15.815Z,101228.40
2024-02-02T08:40:49.363Z,101231.59
2024-02-02T08:43:21.051Z,101227.45
2024-02-02T08:46:11.964Z,101225.91
2024-02-02T08:48:58.302Z,101222.39
2024-02-02T08:51:47.944Z,101219.11
2024-02-02T08:54:16.062Z,101218.10
2024-02-02T08:56:48.799Z,101214.52
2024-02-02T08:59:40.654Z,101213.48
2024-02-02T09:02:26.395Z,101205.29
2024-02-02T09:04:58.214Z,101196.85
2024-02-02T09:07:26.309Z,101188.63
2024-02-02T09:09:54.290Z,101184.38
2024-02-02T09:12:25.167Z,101181.91
2024-02-02T09:14:53.138Z,101186.29
2024-02-02T09:17:21.197Z,101190.83
2024-02-02T09:19:49.148Z,101189.48
2024-02-02T09:22:17.491Z,101178.91
2024-02-02T09:24:48.412Z,101174.88
2024-02-02T09:27:34.140Z,101179.05
2024-02-02T09:30:06.796Z,101171.08
2024-02-02T09:32:34.948Z,101162.69
2024-02-02T09:35:04.642Z,101159.48
2024-02-02T09:37:50.435Z,101163.39
2024-02-02T09:40:43.474Z,101152.48
2024-02-02T09:43:30.044Z,101153.45
2024-02-02T09:46:37.066Z,101147.73
2024-02-02T09:49:15.885Z,101150.74
2024-02-02T09:51:57.057Z,101156.36
2024-02-02T09:55:09.732Z,101150.91
2024-02-02T09:57:51.700Z,101160.79
2024-02-02T10:00:23.722Z,101160.98
2024-02-02T10:02:54.581Z,101161.73
2024-02-02T10:06:01.309Z,101155.34
2024-02-02T10:08:35.318Z,101151.88
2024-02-02T10:11:12.459Z,101150.00
2024-02-02T10:13:47.962Z,101156.41
2024-02-02T10:16:47.140Z,101151.14
2024-02-02T10:19:48.204Z,101156.11
2024-02-02T10:22:40.118Z,101158.55
2024-02-02T10:25:36.234Z,101151.98
2024-02-02T10:28:08.203Z,101136.75
2024-02-02T10:30:50.072Z,101121.08
2024-02-02T10:33:47.138Z,101123.09
2024-02-02T10:36:53.586Z,101124.14
2024-02-02T10:39:29.813Z,101107.77
2024-02-02T10:42:59.933Z,101101.40
2024-02-02T10:45:49.068Z,101112.21
2024-02-02T10:48:35.327Z,101101.94
2024-02-02T10:51:29.416Z,101115.02
2024-02-02T10:54:21.545Z,101106.75
2024-02-02T10:56:56.192Z,101095.42
2024-02-02T10:59:32.992Z,101098.44
2024-02-02T11:02:13.457Z,101094.11
2024-02-02T11:04:54.504Z,101097.64
2024-02-02T11:07:23.301Z,101097.16
2024-02-02T11:09:57.776Z,101090.20
2024-02-02T11:12:27.258Z,101079.12
2024-02-02T11:15:00.104Z,101074.48
2024-02-02T11:17:38.129Z,101075.67
2024-02-02T11:20:28.008Z,101073.20
2024-02-02T11:23:31.858Z,101070.01
2024-02-02T11:26:21.799Z,101060.16
2024-02-02T11:28:58.026Z,101057.91
2024-02-02T11:31:36.063Z,101055.34
2024-02-02T11:34:14.739Z,101046.10
2024-02-02T11:36:59.598Z,101043.04
2024-02-02T11:39:33.600Z,101050.98
2024-02-02T11:42:04.288Z,101043.89
2024-02-02T11:44:32.382Z,101044.09
2024-02-02T11:47:01.130Z,101041.07
2024-02-02T11:49:37.112Z,101034.40
2024-02-02T11:52:12.875Z,101025.99
2024-02-02T11:54:47.091Z,101024.16
2024-02-02T11:57:21.999Z,101016.47
2024-02-02T11:59:54.770Z,101007.52
2024-02-02T12:03:01.981Z,101003.23
2024-02-02T12:05:45.667Z,100989.70
2024-02-02T12:08:23.307Z,100989.34
2024-02-02T12:10:51.876Z,100986.90
2024-02-02T12:13:22.753Z,100988.58
2024-02-02T12:15:54.075Z,100988.20
2024-02-02T12:18:22.246Z,100986.11
2024-02-02T12:20:50.554Z,100984.29
2024-02-02T12:23:18.535Z,100982.62
2024-02-02T12:25:46.492Z,100982.66
2024-02-02T12:28:14.537Z,100981.38
2024-02-02T12:30:42.623Z,100976.06
2024-02-02T12:33:10.676Z,100969.95
2024-02-02T12:35:39.224Z,100968.43
2024-02-02T12:38:07.497Z,100964.57
2024-02-02T12:40:35.772Z,100968.73
2024-02-02T12:43:03.771Z,100967.83
2024-02-02T12:45:34.491Z,100965.40
2024-02-02T12:48:03.554Z,100962.68
2024-02-02T12:50:32.996Z,100956.04
2024-02-02T12:53:00.939Z,100960.03
2024-02-02T12:55:29.284Z,100957.70
2024-02-02T12:57:57.189Z,100950.36
2024-02-02T13:00:25.995Z,100948.30
2024-02-02T13:02:55.947Z,100943.02
2024-02-02T13:05:27.514Z,100936.92
2024-02-02T13:07:57.609Z,100916.67
2024-02-02T13:10:38.892Z,100904.20
2024-02-02T13:13:19.020Z,100911.20
2024-02-02T13:15:47.315Z,100912.48
2024-02-02T13:18:20.843Z,100907.97
2024-02-02T13:20:53.802Z,100902.95
2024-02-02T13:23:24.937Z,100899.64
2024-02-02T13:25:54.406Z,100896.98
2024-02-02T13:28:22.433Z,100884.61
2024-02-02T13:30:55.648Z,100881.34
2024-02-02T13:33:31.545Z,100881.93
2024-02-02T13:36:00.882Z,100872.65
2024-02-02T13:38:32.374Z,100867.61
2024-02-02T13:41:00.856Z,100849.13
2024-02-02T13:43:29.734Z,100844.91
2024-02-02T13:46:08.801Z,100842.67
2024-02-02T13:48:44.451Z,100844.56
2024-02-02T13:51:13.338Z,100835.33
2024-02-02T13:53:41.583Z,100834.28
2024-02-02T13:56:11.770Z,100829.88
2024-02-02T13:58:43.916Z,100836.34
2024-02-02T14:01:21.577Z,100842.77
2024-02-02T14:03:55.554Z,100834.51
2024-02-02T14:06:25.007Z,100824.33
2024-02-02T14:08:55.585Z,100813.23
2024-02-02T14:11:25.686Z,100821.27
2024-02-02T14:13:54.857Z,100821.08
2024-02-02T14:16:28.361Z,100821.44
2024-02-02T14:19:06.568Z,100812.91
2024-02-02T14:21:36.309Z,100802.13
2024-02-02T14:24:16.107Z,100803.35
2024-02-02T14:27:04.770Z,100800.34
2024-02-02T14:29:44.319Z,100803.00
2024-02-02T14:32:12.806Z,100788.47
2024-02-02T14:34:41.820Z,100782.73
2024-02-02T14:37:12.269Z,100776.12
2024-02-02T14:39:40.253Z,100764.73
2024-02-02T14:42:08.320Z,100763.02
2024-02-02T14:44:36.619Z,100761.08
2024-02-02T14:47:07.411Z,100758.04
2024-02-02T14:49:35.773Z,100754.91
2024-02-02T14:52:04.138Z,100751.00
2024-02-02T14:54:32.091Z,100751.96
2024-02-02T14:57:00.536Z,100746.11
2024-02-02T14:59:40.645Z,100736.80
2024-02-02T15:02:13.765Z,100734.13
2024-02-02T15:04:41.999Z,100728.50
2024-02-02T15:07:10.073Z,100728.40
2024-02-02T15:09:39.608Z,100724.19
2024-02-02T15:12:08.016Z,100720.70
2024-02-02T15:14:36.716Z,100722.53
2024-02-02T15:17:04.875Z,100721.25
2024-02-02T15:19:33.223Z,100713.19
2024-02-02T15:22:01.411Z,100702.57
2024-02-02T15:24:29.407Z,100700.44
2024-02-02T15:26:57.409Z,100699.50
2024-02-02T15:29:25.579Z,100702.67
2024-02-02T15:31:53.498Z,100694.80
2024-02-02T15:34:21.623Z,100689.77
2024-02-02T15:36:49.767Z,100681.27
2024-02-02T15:39:26.527Z,100680.39
2024-02-02T15:41:58.875Z,100675.80
2024-02-02T15:44:26.802Z,100670.63
2024-02-02T15:46:54.742Z,100670.48
2024-02-02T15:49:22.791Z,100666.67
2024-02-02T15:51:50.815Z,100664.80
2024-02-02T15:54:19.857Z,100659.23
2024-02-02T15:56:48.410Z,100662.73
2024-02-02T15:59:16.776Z,100660.19
2024-02-02T16:01:51.759Z,100645.45
2024-02-02T16:04:19.751Z,100647.25
2024-02-02T16:06:47.945Z,100636.48
2024-02-02T16:09:16.044Z,100636.66
2024-02-02T16:11:43.960Z,100635.34
2024-02-02T16:14:12.214Z,100641.95
2024-02-02T16:16:40.189Z,100641.23
2024-02-02T16:19:08.154Z,100631.48
2024-02-02T16:21:36.767Z,100630.55
2024-02-02T16:24:05.370Z,100627.13
2024-02-02T16:26:33.367Z,100630.16
2024-02-02T16:29:01.313Z,100620.01
2024-02-02T16:31:29.261Z,100619.30
2024-02-02T16:33:57.386Z,100611.77
2024-02-02T16:36:25.464Z,100613.42
2024-02-02T16:38:53.441Z,100611.03
2024-02-02T16:41:21.750Z,100611.61
2024-02-02T16:43:49.635Z,100605.83
2024-02-02T16:46:17.510Z,100599.01
2024-02-02T16:48:46.983Z,100600.22
2024-02-02T16:51:18.202Z,100594.32
2024-02-02T16:53:46.804Z,100590.23
2024-02-02T16:56:18.712Z,100583.21
2024-02-02T16:58:46.643Z,100583.26
2024-02-02T17:01:14.527Z,100577.87
2024-02-02T17:03:43.070Z,100575.73
2024-02-02T17:06:11.740Z,100577.13
2024-02-02T17:08:40.841Z,100571.85
2024-02-02T17:11:09.076Z,100575.70
2024-02-02T17:13:36.934Z,100576.24
2024-02-02T17:16:05.939Z,100562.95
2024-02-02T17:18:34.589Z,100561.02
2024-02-02T17:21:03.548Z,100564.84
2024-02-02T17:23:31.905Z,100559.81
2024-02-02T17:25:59.824Z,100561.67
2024-02-02T17:28:27.786Z,100552.10
2024-02-02T17:30:55.844Z,100547.33
2024-02-02T17:33:23.972Z,100551.16
2024-02-02T17:35:51.971Z,100545.17
2024-02-02T17:38:19.941Z,100539.73
2024-02-02T17:40:47.890Z,100532.70
2024-02-02T17:43:15.980Z,100532.20
2024-02-02T17:45:44.020Z,100517.83
2024-02-02T17:48:12.732Z,100515.98
2024-02-02T17:50:44.624Z,100510.27
2024-02-02T17:53:12.985Z,100500.41
2024-02-02T17:55:40.953Z,100490.48
2024-02-02T17:58:09.744Z,100484.73
2024-02-02T18:00:37.685Z,100478.56
2024-02-02T18:03:05.632Z,100476.97
2024-02-02T18:05:33.675Z,100473.54
2024-02-02T18:08:01.971Z,100473.67
2024-02-02T18:10:30.673Z,100465.45
2024-02-02T18:13:00.196Z,100459.02
2024-02-02T18:15:28.279Z,100463.26
2024-02-02T18:17:56.396Z,100461.27
2024-02-02T18:20:24.427Z,100462.33
2024-02-02T18:22:53.613Z,100462.79
2024-02-02T18:25:22.890Z,100470.45
2024-02-02T18:27:53.165Z,100471.48
2024-02-02T18:30:21.234Z,100462.80
2024-02-02T18:32:49.579Z,100465.18
2024-02-02T18:35:17.915Z,100466.51
2024-02-02T18:37:46.549Z,100452.52
2024-02-02T18:40:14.841Z,100449.61
2024-02-02T18:42:42.799Z,100446.79
2024-02-02T18:45:11.024Z,100449.84
2024-02-02T18:47:39.321Z,100442.77
2024-02-02T18:50:07.951Z,100435.39
2024-02-02T18:52:36.034Z,100421.50
2024-02-02T18:55:04.174Z,100422.47
2024-02-02T18:57:32.064Z,100421.60
2024-02-02T19:00:00.145Z,100414.15
2024-02-02T19:02:28.214Z,100412.78
2024-02-02T19:04:56.276Z,100413.98
2024-02-02T19:07:26.794Z,100411.44
2024-02-02T19:09:55.024Z,100408.60
2024-02-02T19:12:23.139Z,100414.47
2024-02-02T19:14:52.198Z,100412.91
2024-02-02T19:17:20.104Z,100406.17
2024-02-02T19:19:49.093Z,100398.49
2024-02-02T19:22:17.280Z,100395.71
2024-02-02T19:24:47.452Z,100398.45
2024-02-02T19:27:15.582Z,100402.67
2024-02-02T19:29:43.555Z,100401.32
2024-02-02T19:32:14.393Z,100402.90
2024-02-02T19:34:42.773Z,100403.23
2024-02-02T19:37:10.789Z,100398.86
2024-02-02T19:39:38.925Z,100402.34
2024-02-02T19:42:07.477Z,100392.20
2024-02-02T19:44:35.420Z,100396.80
2024-02-02T19:47:03.448Z,100397.63
2024-02-02T19:49:33.981Z,100402.19
2024-02-02T19:52:02.093Z,100401.19
2024-02-02T19:54:32.241Z,100402.11
2024-02-02T19:57:00.212Z,100397.42
2024-02-02T19:59:28.097Z,100401.47
2024-02-02T20:13:17.538Z,100399.83
2024-02-02T20:15:45.507Z,100400.77
2024-02-02T20:18:13.800Z,100404.52
2024-02-02T20:20:41.979Z,100409.08
2024-02-02T20:23:09.942Z,100416.66
2024-02-02T20:25:37.984Z,100407.04
2024-02-02T20:28:05.986Z,100414.02
2024-02-02T20:30:33.961Z,100413.36
2024-02-02T20:33:01.891Z,100412.54
2024-02-02T20:35:30.001Z,100403.27
2024-02-02T20:37:58.769Z,100410.87
2024-02-02T20:40:26.637Z,100413.24
2024-02-02T20:42:54.647Z,100408.21
2024-02-02T20:45:22.472Z,100410.93
2024-02-02T20:47:50.302Z,100416.41
2024-02-02T20:50:23.617Z,100414.63
2024-02-02T20:52:51.609Z,100410.16
2024-02-02T20:55:19.518Z,100410.45
2024-02-02T20:57:49.160Z,100412.54
2024-02-02T21:00:18.497Z,100412.59
2024-02-02T21:02:46.435Z,100415.36
2024-02-02T21:05:14.690Z,100406.69
2024-02-02T21:07:42.656Z,100405.80
2024-02-02T21:10:11.063Z,100406.34
2024-02-02T21:12:41.852Z,100410.29
2024-02-02T21:15:11.953Z,100408.19
2024-02-02T21:17:46.075Z,100402.62
2024-02-02T21:20:14.794Z,100402.95
2024-02-02T21:22:42.762Z,100403.45
2024-02-02T21:25:10.731Z,100401.59
2024-02-02T21:27:38.777Z,100398.38
2024-02-02T21:30:07.261Z,100397.69
2024-02-02T21:32:35.218Z,100397.13
2024-02-02T21:35:03.257Z,100395.10
2024-02-02T21:37:31.168Z,100394.50
2024-02-02T21:39:59.014Z,100395.21
2024-02-02T21:42:26.939Z,100392.98
2024-02-02T21:44:54.780Z,100393.96
2024-02-02T21:47:22.751Z,100383.11
2024-02-02T21:49:50.768Z,100375.77
2024-02-02T21:52:18.793Z,100377.54
2024-02-02T21:54:46.738Z,100370.83
2024-02-02T21:57:14.718Z,100359.48
2024-02-02T21:59:42.735Z,100361.40
2024-02-02T22:02:10.748Z,100354.31
2024-02-02T22:04:38.619Z,100355.75
2024-02-02T22:07:06.559Z,100351.71
2024-02-02T22:09:34.479Z,100341.89
2024-02-02T22:12:02.593Z,100353.61
2024-02-02T22:14:33.827Z,100354.21
2024-02-02T22:17:01.726Z,100360.88
2024-02-02T22:19:29.675Z,100353.75
2024-02-02T22:21:58.340Z,100354.04
2024-02-02T22:24:27.973Z,100345.39
2024-02-02T22:26:55.836Z,100344.27
2024-02-02T22:29:23.851Z,100338.16
2024-02-02T22:31:51.756Z,100339.05
2024-02-02T22:34:19.711Z,100340.82
2024-02-02T22:36:47.589Z,100326.63
2024-02-02T22:39:16.088Z,100327.46
2024-02-02T22:41:44.274Z,100330.55
2024-02-02T22:44:12.171Z,100328.67
2024-02-02T22:46:40.069Z,100329.89
2024-02-02T22:49:08.144Z,100339.37
2024-02-02T22:51:44.252Z,100330.19
2024-02-02T22:54:12.403Z,100332.55
2024-02-02T22:56:41.293Z,100332.42
2024-02-02T22:59:09.216Z,100319.36
2024-02-02T23:01:37.353Z,100322.08
2024-02-02T23:04:05.646Z,100309.98
2024-02-02T23:06:33.771Z,100312.25
2024-02-02T23:09:02.234Z,100327.06
2024-02-02T23:11:30.100Z,100307.65
2024-02-02T23:13:58.017Z,100306.48
2024-02-02T23:16:26.087Z,100311.77
2024-02-02T23:18:54.027Z,100304.23
2024-02-02T23:21:22.035Z,100304.63
2024-02-02T23:23:50.071Z,100304.11
2024-02-02T23:26:18.375Z,100298.33
2024-02-02T23:28:46.205Z,100305.34
2024-02-02T23:31:14.981Z,100286.75
2024-02-02T23:33:43.523Z,100290.46
2024-02-02T23:36:11.823Z,100295.63
2024-02-02T23:38:41.166Z,100286.65
2024-02-02T23:41:09.085Z,100281.88
2024-02-02T23:43:36.903Z,100291.86
2024-02-02T23:46:05.706Z,100291.73
2024-02-02T23:48:34.025Z,100287.75
2024-02-02T23:51:02.301Z,100280.24
2024-02-02T23:53:30.126Z,100274.44
2024-02-02T23:55:58.209Z,100276.94
2024-02-02T23:58:26.618Z,100275.83
